Etusivu
METAR-TAF:

METAR-TAF

Lentoasemat :

Sfax, Tunisia

Leveyspiiri: 34-43N, Pituuspiiri: 010-41E, korkeus merenpinnasta: 21 m

Tämänhetkinen sää

Tämä raportti tehtiin 28 minuuttia sitten, kello 01.00 UTC
Tuuli 2 kn etelästä
Lämpötila 25°C
Kosteus 79%
Ilmanpaine 1016 hPa
Näkyvyys 10 km tai enemmän
Muutamia pilviä 3000 ft:n korkeudessa

METAR: DTTX 190100Z 18002KT 9999 FEW030 25/21 Q1016

Aika: 02:28 (01:28 UTC)

Sääennuste

Tämä raportti tehtiin 2 tuntia ja 28 minuuttia sitten, kello 23.00 UTC
Ennuste voimassa 19. päivästä klo 00 UTC - 19. päivään klo 24 UTC
Tuuli 2 kn kaakosta
Näkyvyys 10 km tai enemmän
Muutamia pilviä 3000 ft:n korkeudessa
Tulossa
19. päivästä klo 13 UTC - 19. päivään klo 15 UTC
Tuuli 12 kn kaakosta
Tulossa
19. päivästä klo 21 UTC - 19. päivään klo 23 UTC
Tuuli 3 kn eri suunnista

TAF: DTTX 182300Z 1900/1924 13002KT 9999 FEW030 BECMG 1913/1915 13012KT BECMG 1921/1923 VRB03KT

Säähavainnot ja -ennusteet yli 4000 lentoasemalta (METAR- ja TAF-raportit).

Käytössä olevat sääasemat on merkitty karttaan keltaisilla ja punaisilla pisteillä.

Aseta hiiri pisteen päälle nähdäksesi sääaseman nimen.

Klikkaa sitten nähdäksesi säähavainnot ja -ennusteet.

Kartan vaihtaminen: klikkaa mustalla rastilla varustettuja vihreitä pisteitä, niin voit zoomata sisään; viivalla varustettua vihreää pistettä, niin voit zoomata ulos tai vihreitä nuolia, niin pääset viereisille kartoille.


METAR-TAF: